createdAt,value
2022-10-22T00:02:27.968Z,0.22
2022-10-22T00:04:56.996Z,0.00
2022-10-22T00:07:24.346Z,0.00
2022-10-22T00:09:51.369Z,0.52
2022-10-22T00:12:18.451Z,0.10
2022-10-22T00:14:45.458Z,0.43
2022-10-22T00:17:12.482Z,0.28
2022-10-22T00:19:39.753Z,0.45
2022-10-22T00:22:07.259Z,0.10
2022-10-22T00:24:34.626Z,0.20
2022-10-22T00:27:02.117Z,0.30
2022-10-22T00:29:29.101Z,0.20
2022-10-22T00:31:57.182Z,0.10
2022-10-22T00:34:24.421Z,0.10
2022-10-22T00:36:51.792Z,0.20
2022-10-22T00:39:20.530Z,0.17
2022-10-22T00:41:47.947Z,0.60
2022-10-22T00:44:52.564Z,0.10
2022-10-22T00:47:19.649Z,0.00
2022-10-22T00:49:46.544Z,0.10
2022-10-22T00:52:13.542Z,0.65
2022-10-22T00:54:40.787Z,0.57
2022-10-22T00:57:07.693Z,0.00
2022-10-22T00:59:34.660Z,0.17
2022-10-22T01:02:01.737Z,0.03
2022-10-22T01:04:29.069Z,0.00
2022-10-22T01:06:56.124Z,0.20
2022-10-22T01:09:33.953Z,0.20
2022-10-22T01:12:16.976Z,0.13
2022-10-22T01:15:08.015Z,0.88
2022-10-22T01:17:41.828Z,0.10
2022-10-22T01:20:52.147Z,0.95
2022-10-22T01:23:21.363Z,0.10
2022-10-22T01:26:11.301Z,0.10
2022-10-22T01:29:03.196Z,0.10
2022-10-22T01:31:32.500Z,0.10
2022-10-22T01:33:59.802Z,0.20
2022-10-22T01:36:30.001Z,0.03
2022-10-22T01:38:57.327Z,0.13
2022-10-22T01:41:24.337Z,0.10
2022-10-22T01:43:51.433Z,0.10
2022-10-22T01:46:22.299Z,0.35
2022-10-22T01:48:54.005Z,0.40
2022-10-22T01:51:36.207Z,0.10
2022-10-22T01:54:18.434Z,0.60
2022-10-22T01:57:03.611Z,0.38
2022-10-22T01:59:52.282Z,0.17
2022-10-22T02:02:28.584Z,0.17
2022-10-22T02:05:22.039Z,0.20
2022-10-22T02:07:59.543Z,0.10
2022-10-22T02:10:26.435Z,0.10
2022-10-22T02:12:54.569Z,0.00
2022-10-22T02:15:22.188Z,0.00
2022-10-22T02:17:49.116Z,0.28
2022-10-22T02:20:27.758Z,0.50
2022-10-22T02:22:55.266Z,0.30
2022-10-22T02:25:22.899Z,0.00
2022-10-22T02:28:02.673Z,0.10
2022-10-22T02:30:29.631Z,0.10
2022-10-22T02:32:58.008Z,0.08
2022-10-22T02:35:25.969Z,0.10
2022-10-22T02:37:53.268Z,0.05
2022-10-22T02:40:20.556Z,0.00
2022-10-22T02:42:48.097Z,0.00
2022-10-22T02:45:15.197Z,0.10
2022-10-22T02:47:42.255Z,0.43
2022-10-22T02:50:10.384Z,0.00
2022-10-22T02:52:38.182Z,0.00
2022-10-22T02:55:05.880Z,0.00
2022-10-22T02:57:33.203Z,0.00
2022-10-22T03:00:00.252Z,0.00
2022-10-22T03:02:27.122Z,0.00
2022-10-22T03:04:54.003Z,0.25
2022-10-22T03:07:20.959Z,0.03
2022-10-22T03:09:48.083Z,0.10
2022-10-22T03:12:15.114Z,0.10
2022-10-22T03:14:42.104Z,0.08
2022-10-22T03:17:09.441Z,0.00
2022-10-22T03:19:36.794Z,0.28
2022-10-22T03:22:10.166Z,0.00
2022-10-22T03:24:39.119Z,0.00
2022-10-22T03:27:06.200Z,0.10
2022-10-22T03:29:34.200Z,0.00
2022-10-22T03:32:01.073Z,0.10
2022-10-22T03:34:27.962Z,0.00
2022-10-22T03:36:54.964Z,0.10
2022-10-22T03:39:21.927Z,0.10
2022-10-22T03:41:49.754Z,0.10
2022-10-22T03:44:17.099Z,0.00
2022-10-22T03:46:44.692Z,0.10
2022-10-22T03:49:11.615Z,0.00
2022-10-22T03:51:38.624Z,1.05
2022-10-22T03:54:05.574Z,0.20
2022-10-22T03:56:32.655Z,0.00
2022-10-22T03:59:00.272Z,0.17
2022-10-22T04:01:27.695Z,0.25
2022-10-22T04:03:54.879Z,0.00
2022-10-22T04:06:22.045Z,0.10
2022-10-22T04:08:48.953Z,0.00
2022-10-22T04:11:16.161Z,0.00
2022-10-22T04:13:43.438Z,0.03
2022-10-22T04:16:20.688Z,0.00
2022-10-22T04:18:48.268Z,0.00
2022-10-22T04:21:16.247Z,0.30
2022-10-22T04:23:50.362Z,0.00
2022-10-22T04:26:17.875Z,0.05
2022-10-22T04:28:45.003Z,0.40
2022-10-22T04:31:16.704Z,0.10
2022-10-22T04:33:43.739Z,0.10
2022-10-22T04:36:15.452Z,0.17
2022-10-22T04:38:43.030Z,0.10
2022-10-22T04:41:11.724Z,0.32
2022-10-22T04:43:39.292Z,0.10
2022-10-22T04:46:06.672Z,0.10
2022-10-22T04:48:33.760Z,0.10
2022-10-22T04:51:00.823Z,0.30
2022-10-22T04:53:28.350Z,0.20
2022-10-22T04:55:55.243Z,0.60
2022-10-22T04:58:22.170Z,0.47
2022-10-22T05:00:49.436Z,0.00
2022-10-22T05:03:16.394Z,0.00
2022-10-22T05:05:43.306Z,0.03
2022-10-22T05:08:10.211Z,0.10
2022-10-22T05:10:37.135Z,0.45
2022-10-22T05:13:04.043Z,0.08
2022-10-22T05:15:30.967Z,0.40
2022-10-22T05:17:58.044Z,0.20
2022-10-22T05:20:25.051Z,0.10
2022-10-22T05:22:55.193Z,0.00
2022-10-22T05:25:22.163Z,0.10
2022-10-22T05:27:50.487Z,0.10
2022-10-22T05:30:17.889Z,0.10
2022-10-22T05:32:45.186Z,0.03
2022-10-22T05:35:12.217Z,0.10
2022-10-22T05:37:39.603Z,0.17
2022-10-22T05:40:19.594Z,0.30
2022-10-22T05:42:53.759Z,0.10
2022-10-22T05:45:20.774Z,0.20
2022-10-22T05:47:47.659Z,0.10
2022-10-22T05:50:14.796Z,0.10
2022-10-22T05:52:42.190Z,0.28
2022-10-22T05:55:09.483Z,0.13
2022-10-22T05:57:36.445Z,0.10
2022-10-22T06:00:04.190Z,0.38
2022-10-22T06:02:31.432Z,0.20
2022-10-22T06:04:58.496Z,0.40
2022-10-22T06:07:25.488Z,0.38
2022-10-22T06:09:53.788Z,0.35
2022-10-22T06:12:20.732Z,0.65
2022-10-22T06:14:47.722Z,0.10
2022-10-22T06:17:14.618Z,0.47
2022-10-22T06:19:41.867Z,0.30
2022-10-22T06:22:09.060Z,0.25
2022-10-22T06:24:36.019Z,0.15
2022-10-22T06:27:03.105Z,0.10
2022-10-22T06:29:30.031Z,0.10
2022-10-22T06:31:57.279Z,0.50
2022-10-22T06:34:24.553Z,0.50
2022-10-22T06:36:51.727Z,0.13
2022-10-22T06:39:18.757Z,0.20
2022-10-22T06:41:46.011Z,0.17
2022-10-22T06:44:17.868Z,0.43
2022-10-22T06:46:44.870Z,0.20
2022-10-22T06:49:15.326Z,0.20
2022-10-22T06:51:42.453Z,0.10
2022-10-22T06:54:09.441Z,0.40
2022-10-22T06:56:36.486Z,0.28
2022-10-22T06:59:03.808Z,0.40
2022-10-22T07:01:31.992Z,0.50
2022-10-22T07:03:58.920Z,0.50
2022-10-22T07:06:26.330Z,0.30
2022-10-22T07:08:54.466Z,0.35
2022-10-22T07:11:23.839Z,0.28
2022-10-22T07:13:51.775Z,0.45
2022-10-22T07:16:18.877Z,0.30
2022-10-22T07:18:46.222Z,0.63
2022-10-22T07:21:14.531Z,1.23
2022-10-22T07:23:41.584Z,0.40
2022-10-22T07:26:08.756Z,0.45
2022-10-22T07:28:37.966Z,0.77
2022-10-22T07:31:05.029Z,0.28
2022-10-22T07:33:32.099Z,0.40
2022-10-22T07:35:59.931Z,0.52
2022-10-22T07:38:27.614Z,0.20
2022-10-22T07:40:54.693Z,0.28
2022-10-22T07:43:21.720Z,0.45
2022-10-22T07:45:48.808Z,0.35
2022-10-22T07:48:16.238Z,0.77
2022-10-22T07:53:11.954Z,0.90
2022-10-22T07:55:39.330Z,0.20
2022-10-22T07:58:06.338Z,0.30
2022-10-22T08:00:33.495Z,0.52
2022-10-22T08:03:00.714Z,0.20
2022-10-22T08:05:27.859Z,0.32
2022-10-22T08:07:55.983Z,0.45
2022-10-22T08:10:23.076Z,0.28
2022-10-22T08:12:50.069Z,0.38
2022-10-22T08:15:17.207Z,0.60
2022-10-22T08:17:44.418Z,0.28
2022-10-22T08:20:11.892Z,0.40
2022-10-22T08:22:39.006Z,0.30
2022-10-22T08:25:06.386Z,0.30
2022-10-22T08:27:33.321Z,0.38
2022-10-22T08:30:00.441Z,0.43
2022-10-22T08:35:01.394Z,0.25
2022-10-22T08:37:28.412Z,0.13
2022-10-22T08:39:55.386Z,0.40
2022-10-22T08:42:44.463Z,0.45
2022-10-22T08:45:26.752Z,0.10
2022-10-22T08:48:15.155Z,0.65
2022-10-22T08:50:46.734Z,1.02
2022-10-22T08:53:18.448Z,0.50
2022-10-22T08:55:45.558Z,0.38
2022-10-22T08:58:31.247Z,0.30
2022-10-22T09:01:17.534Z,0.20
2022-10-22T09:03:51.427Z,0.50
2022-10-22T09:06:26.088Z,0.47
2022-10-22T09:08:53.312Z,0.50
2022-10-22T09:11:33.261Z,0.10
2022-10-22T09:14:00.685Z,0.75
2022-10-22T09:16:37.836Z,0.15
2022-10-22T09:19:28.595Z,0.20
2022-10-22T09:22:15.091Z,0.20
2022-10-22T09:27:12.836Z,0.50
2022-10-22T09:29:39.902Z,0.55
2022-10-22T09:32:07.032Z,0.20
2022-10-22T09:34:34.210Z,0.45
2022-10-22T09:37:03.490Z,0.52
2022-10-22T09:39:51.376Z,0.20
2022-10-22T09:42:19.912Z,0.32
2022-10-22T09:44:59.890Z,0.30
2022-10-22T09:47:43.530Z,0.22
2022-10-22T09:50:26.595Z,0.20
2022-10-22T09:53:26.672Z,0.50
2022-10-22T09:56:01.132Z,0.30
2022-10-22T09:58:28.422Z,0.28
2022-10-22T10:00:59.609Z,0.80
2022-10-22T10:03:29.237Z,0.20
2022-10-22T10:06:01.503Z,0.40
2022-10-22T10:08:32.091Z,0.20
2022-10-22T10:11:01.808Z,0.20
2022-10-22T10:13:34.858Z,0.30
2022-10-22T10:16:10.915Z,0.40
2022-10-22T10:19:04.150Z,0.20
2022-10-22T10:21:53.207Z,0.30
2022-10-22T10:24:55.827Z,0.50
2022-10-22T10:27:33.674Z,0.30
2022-10-22T10:30:17.781Z,0.20
2022-10-22T10:33:18.231Z,0.22
2022-10-22T10:36:00.393Z,0.43
2022-10-22T10:38:33.093Z,0.47
2022-10-22T10:41:20.181Z,0.45
2022-10-22T10:44:02.107Z,0.10
2022-10-22T10:46:34.906Z,0.10
2022-10-22T10:49:08.323Z,0.10
2022-10-22T10:51:38.326Z,0.00
2022-10-22T10:54:14.080Z,0.25
2022-10-22T10:57:20.603Z,0.10
2022-10-22T11:00:06.640Z,0.38
2022-10-22T11:03:05.781Z,0.30
2022-10-22T11:05:34.697Z,0.10
2022-10-22T11:08:06.384Z,0.10
2022-10-22T11:10:48.211Z,0.35
2022-10-22T11:13:36.955Z,0.15
2022-10-22T11:16:16.748Z,0.00
2022-10-22T11:19:22.526Z,0.40
2022-10-22T11:22:11.745Z,0.27
2022-10-22T11:24:50.740Z,0.20
2022-10-22T11:27:50.052Z,0.00
2022-10-22T11:30:19.006Z,0.32
2022-10-22T11:32:54.799Z,0.10
2022-10-22T11:35:30.934Z,0.20
2022-10-22T11:37:57.952Z,0.60
2022-10-22T11:40:38.268Z,0.20
2022-10-22T11:43:07.043Z,0.90
2022-10-22T11:45:38.483Z,0.25
2022-10-22T11:48:11.081Z,0.13
2022-10-22T11:51:00.228Z,0.70
2022-10-22T11:53:33.908Z,0.15
2022-10-22T11:56:07.752Z,0.30
2022-10-22T11:58:39.388Z,0.30
2022-10-22T12:01:07.340Z,0.25
2022-10-22T12:03:39.521Z,0.13
2022-10-22T12:06:11.615Z,0.40
2022-10-22T12:08:56.987Z,0.10
2022-10-22T12:11:29.121Z,0.33
2022-10-22T12:14:03.188Z,0.15
2022-10-22T12:16:55.162Z,0.30
2022-10-22T12:19:31.925Z,0.10
2022-10-22T12:22:23.135Z,0.10
2022-10-22T12:25:00.877Z,0.45
2022-10-22T12:27:35.511Z,0.00
2022-10-22T12:30:03.876Z,0.57
2022-10-22T12:32:36.018Z,0.03
2022-10-22T12:35:08.001Z,0.10
2022-10-22T12:37:38.307Z,0.20
2022-10-22T12:40:25.930Z,0.13
2022-10-22T12:42:55.284Z,0.10
2022-10-22T12:45:23.227Z,0.10
2022-10-22T12:47:51.550Z,0.85
2022-10-22T12:50:19.883Z,0.08
2022-10-22T12:52:48.079Z,0.15
2022-10-22T12:55:18.740Z,0.25
2022-10-22T12:57:49.245Z,0.20
2022-10-22T13:00:27.109Z,0.10
2022-10-22T13:02:54.273Z,0.05
2022-10-22T13:05:22.596Z,0.10
2022-10-22T13:07:51.597Z,0.00
2022-10-22T13:10:26.845Z,0.00
2022-10-22T13:12:57.731Z,0.00
2022-10-22T13:15:27.692Z,0.28
2022-10-22T13:18:05.072Z,0.17
2022-10-22T13:20:32.143Z,0.22
2022-10-22T13:23:03.322Z,0.10
2022-10-22T13:25:31.022Z,0.00
2022-10-22T13:27:58.783Z,0.00
2022-10-22T13:30:28.785Z,0.10
2022-10-22T13:32:59.631Z,0.20
2022-10-22T13:35:34.143Z,0.03
2022-10-22T13:38:01.333Z,0.30
2022-10-22T13:40:30.895Z,0.00
2022-10-22T13:42:58.112Z,0.10
2022-10-22T13:45:25.252Z,0.40
2022-10-22T13:47:52.919Z,0.00
2022-10-22T13:50:20.406Z,0.20
2022-10-22T13:52:55.471Z,0.00
2022-10-22T13:55:27.553Z,0.10
2022-10-22T13:58:10.423Z,0.30
2022-10-22T14:00:38.349Z,0.10
2022-10-22T14:03:05.400Z,0.10
2022-10-22T14:05:32.710Z,0.20
2022-10-22T14:08:00.423Z,0.10
2022-10-22T14:10:27.324Z,0.20
2022-10-22T14:12:54.412Z,0.10
2022-10-22T14:15:24.449Z,0.20
2022-10-22T14:17:58.119Z,0.00
2022-10-22T14:20:28.161Z,0.10
2022-10-22T14:22:55.141Z,0.10
2022-10-22T14:25:24.430Z,0.63
2022-10-22T14:27:51.756Z,0.10
2022-10-22T14:30:24.218Z,0.00
2022-10-22T14:32:51.351Z,0.45
2022-10-22T14:35:20.437Z,0.20
2022-10-22T14:37:47.461Z,0.08
2022-10-22T14:40:15.900Z,0.10
2022-10-22T14:42:44.633Z,0.05
2022-10-22T14:45:23.328Z,0.40
2022-10-22T14:47:50.775Z,0.20
2022-10-22T14:50:18.300Z,0.10
2022-10-22T14:52:45.425Z,0.20
2022-10-22T14:55:13.358Z,0.10
2022-10-22T14:57:40.719Z,0.10
2022-10-22T15:00:12.573Z,0.05
2022-10-22T15:02:39.847Z,0.17
2022-10-22T15:05:07.487Z,0.35
2022-10-22T15:07:34.655Z,0.10
2022-10-22T15:10:01.672Z,0.10
2022-10-22T15:12:28.999Z,0.10
2022-10-22T15:14:56.105Z,0.10
2022-10-22T15:17:23.177Z,0.10
2022-10-22T15:19:50.085Z,0.15
2022-10-22T15:22:17.515Z,0.15
2022-10-22T15:24:44.799Z,0.20
2022-10-22T15:27:13.758Z,0.10
2022-10-22T15:29:41.106Z,0.10
2022-10-22T15:32:10.397Z,0.08
2022-10-22T15:34:38.267Z,0.10
2022-10-22T15:37:08.238Z,0.10
2022-10-22T15:39:35.665Z,0.10
2022-10-22T15:42:02.613Z,0.32
2022-10-22T15:44:30.836Z,0.20
2022-10-22T15:46:58.220Z,0.13
2022-10-22T15:49:26.112Z,0.10
2022-10-22T15:51:53.391Z,0.13
2022-10-22T15:54:21.958Z,0.13
2022-10-22T15:56:49.223Z,0.20
2022-10-22T15:59:16.625Z,0.25
2022-10-22T16:01:44.324Z,0.20
2022-10-22T16:04:11.391Z,0.25
2022-10-22T16:06:43.589Z,0.20
2022-10-22T16:09:12.216Z,0.35
2022-10-22T16:11:39.669Z,0.50
2022-10-22T16:14:07.376Z,0.10
2022-10-22T16:16:35.647Z,0.43
2022-10-22T16:19:02.708Z,0.17
2022-10-22T16:21:29.796Z,0.00
2022-10-22T16:23:57.251Z,0.55
2022-10-22T16:26:24.111Z,0.40
2022-10-22T16:28:51.178Z,0.15
2022-10-22T16:31:23.828Z,0.10
2022-10-22T16:33:50.892Z,0.20
2022-10-22T16:36:19.552Z,0.50
2022-10-22T16:38:47.012Z,0.73
2022-10-22T16:41:21.364Z,0.55
2022-10-22T16:43:49.414Z,0.20
2022-10-22T16:46:17.800Z,0.10
2022-10-22T16:48:49.055Z,0.20
2022-10-22T16:51:19.159Z,0.50
2022-10-22T16:53:46.298Z,0.30
2022-10-22T16:56:14.745Z,0.60
2022-10-22T16:58:50.898Z,0.52
2022-10-22T17:01:20.482Z,0.40
2022-10-22T17:03:47.661Z,0.30
2022-10-22T17:06:14.914Z,0.68
2022-10-22T17:08:42.238Z,0.38
2022-10-22T17:11:11.170Z,0.40
2022-10-22T17:13:38.208Z,0.38
2022-10-22T17:16:06.006Z,0.75
2022-10-22T17:18:33.182Z,0.40
2022-10-22T17:21:00.306Z,0.38
2022-10-22T17:23:28.594Z,0.77
2022-10-22T17:26:02.885Z,0.57
2022-10-22T17:28:29.968Z,0.93
2022-10-22T17:31:10.519Z,1.27
2022-10-22T17:33:37.458Z,0.60
2022-10-22T17:36:10.825Z,0.98
2022-10-22T17:38:38.911Z,0.88
2022-10-22T17:41:08.065Z,0.70
2022-10-22T17:43:36.776Z,0.73
2022-10-22T17:46:08.111Z,0.43
2022-10-22T17:48:35.400Z,1.08
2022-10-22T17:51:06.799Z,0.75
2022-10-22T17:53:33.958Z,3.70
2022-10-22T17:56:01.858Z,3.08
2022-10-22T17:58:31.875Z,3.42
2022-10-22T18:00:59.626Z,1.08
2022-10-22T18:03:27.892Z,2.05
2022-10-22T18:05:55.417Z,1.33
2022-10-22T18:08:25.590Z,0.82
2022-10-22T18:10:52.646Z,0.90
2022-10-22T18:13:20.874Z,0.70
2022-10-22T18:15:54.844Z,0.88
2022-10-22T18:18:25.088Z,0.98
2022-10-22T18:20:52.252Z,0.52
2022-10-22T18:23:19.369Z,1.15
2022-10-22T18:25:48.562Z,1.23
2022-10-22T18:28:16.834Z,0.52
2022-10-22T18:30:44.227Z,0.85
2022-10-22T18:33:14.140Z,0.98
2022-10-22T18:35:43.795Z,1.13
2022-10-22T18:38:10.743Z,0.45
2022-10-22T18:40:43.908Z,0.73
2022-10-22T18:43:10.952Z,1.25
2022-10-22T18:45:45.035Z,0.82
2022-10-22T18:48:16.861Z,0.75
2022-10-22T18:50:44.038Z,1.25
2022-10-22T18:53:11.494Z,2.72
2022-10-22T18:55:38.667Z,0.63
2022-10-22T18:58:05.852Z,0.63
2022-10-22T19:00:34.162Z,0.75
2022-10-22T19:03:01.278Z,0.45
2022-10-22T19:05:28.304Z,0.40
2022-10-22T19:07:55.417Z,0.50
2022-10-22T19:10:22.335Z,0.50
2022-10-22T19:12:49.327Z,0.73
2022-10-22T19:15:16.452Z,1.02
2022-10-22T19:17:43.855Z,0.38
2022-10-22T19:20:13.531Z,1.08
2022-10-22T19:22:40.711Z,1.90
2022-10-22T19:25:11.937Z,3.60
2022-10-22T19:27:39.960Z,2.78
2022-10-22T19:30:08.918Z,1.40
2022-10-22T19:32:35.911Z,1.00
2022-10-22T19:35:03.238Z,0.55
2022-10-22T19:37:30.323Z,0.85
2022-10-22T19:39:58.894Z,0.95
2022-10-22T19:42:25.960Z,0.30
2022-10-22T19:44:53.230Z,0.22
2022-10-22T19:47:20.250Z,0.68
2022-10-22T19:49:47.359Z,0.32
2022-10-22T19:52:14.845Z,0.57
2022-10-22T19:54:45.569Z,0.68
2022-10-22T19:57:16.744Z,0.40
2022-10-22T19:59:46.610Z,0.32
2022-10-22T20:02:17.503Z,0.60
2022-10-22T20:04:49.195Z,0.95
2022-10-22T20:07:17.311Z,0.65
2022-10-22T20:09:44.579Z,0.88
2022-10-22T20:12:11.699Z,0.20
2022-10-22T20:14:39.459Z,0.30
2022-10-22T20:17:06.394Z,0.47
2022-10-22T20:19:33.681Z,0.90
2022-10-22T20:22:00.747Z,1.02
2022-10-22T20:24:28.013Z,0.60
2022-10-22T20:26:55.134Z,0.45
2022-10-22T20:29:22.267Z,0.82
2022-10-22T20:31:50.031Z,0.90
2022-10-22T20:34:17.639Z,0.57
2022-10-22T20:36:44.710Z,0.52
2022-10-22T20:39:13.412Z,0.85
2022-10-22T20:41:41.119Z,0.47
2022-10-22T20:44:16.684Z,0.45
2022-10-22T20:46:44.269Z,0.32
2022-10-22T20:49:13.895Z,0.68
2022-10-22T20:51:40.922Z,0.10
2022-10-22T20:54:08.118Z,0.85
2022-10-22T20:56:36.163Z,0.40
2022-10-22T20:59:08.171Z,0.45
2022-10-22T21:01:49.231Z,0.77
2022-10-22T21:04:16.466Z,0.60
2022-10-22T21:06:44.024Z,1.05
2022-10-22T21:09:12.456Z,0.55
2022-10-22T21:11:40.165Z,0.30
2022-10-22T21:14:08.336Z,0.57
2022-10-22T21:16:35.451Z,0.32
2022-10-22T21:19:02.609Z,0.47
2022-10-22T21:21:29.546Z,0.22
2022-10-22T21:23:56.742Z,0.47
2022-10-22T21:26:24.035Z,0.22
2022-10-22T21:28:51.313Z,0.10
2022-10-22T21:31:26.304Z,0.30
2022-10-22T21:36:23.135Z,0.63
2022-10-22T21:38:53.451Z,0.10
2022-10-22T21:41:21.803Z,0.10
2022-10-22T21:43:49.535Z,0.30
2022-10-22T21:46:20.327Z,0.82
2022-10-22T21:48:47.471Z,0.75
2022-10-22T21:51:16.609Z,0.32
2022-10-22T21:53:44.092Z,0.30
2022-10-22T21:56:21.444Z,0.20
2022-10-22T21:58:48.948Z,0.20
2022-10-22T22:01:24.005Z,0.22
2022-10-22T22:03:51.268Z,0.30
2022-10-22T22:06:21.433Z,0.20
2022-10-22T22:08:49.934Z,0.50
2022-10-22T22:11:18.635Z,0.50
2022-10-22T22:13:45.813Z,0.57
2022-10-22T22:16:14.279Z,0.32
2022-10-22T22:18:41.386Z,0.30
2022-10-22T22:21:10.474Z,0.43
2022-10-22T22:23:38.398Z,0.25
2022-10-22T22:26:07.063Z,0.80
2022-10-22T22:28:34.463Z,0.20
2022-10-22T22:31:01.808Z,0.38
2022-10-22T22:33:29.316Z,0.38
2022-10-22T22:35:59.745Z,0.30
2022-10-22T22:38:26.962Z,0.25
2022-10-22T22:40:53.916Z,0.57
2022-10-22T22:43:20.777Z,0.20
2022-10-22T22:45:47.668Z,0.13
2022-10-22T22:48:14.947Z,0.20
2022-10-22T22:50:41.883Z,0.20
2022-10-22T22:53:08.804Z,0.47
2022-10-22T22:55:35.786Z,0.50
2022-10-22T22:58:02.757Z,0.22
2022-10-22T23:00:29.869Z,0.20
2022-10-22T23:02:57.005Z,0.20
2022-10-22T23:05:24.493Z,0.20
2022-10-22T23:07:52.646Z,0.20
2022-10-22T23:10:19.523Z,0.20
2022-10-22T23:12:46.588Z,0.17
2022-10-22T23:15:13.823Z,0.10
2022-10-22T23:17:40.810Z,0.10
2022-10-22T23:20:09.747Z,0.63
2022-10-22T23:22:36.598Z,0.17
2022-10-22T23:25:03.619Z,0.10
2022-10-22T23:27:30.552Z,0.30
2022-10-22T23:29:57.494Z,0.10
2022-10-22T23:32:24.538Z,0.10
2022-10-22T23:34:52.303Z,0.15
2022-10-22T23:37:19.956Z,0.20
2022-10-22T23:39:47.060Z,0.10
2022-10-22T23:42:14.835Z,0.10
2022-10-22T23:44:42.078Z,0.20
2022-10-22T23:47:09.014Z,0.20
2022-10-22T23:49:35.938Z,0.50
2022-10-22T23:52:02.952Z,0.10
2022-10-22T23:54:30.145Z,0.17
2022-10-22T23:56:57.229Z,0.10
2022-10-22T23:59:24.128Z,0.17
